createdAt,value
2023-04-09T00:00:10.430Z,44.63
2023-04-09T00:02:42.115Z,44.66
2023-04-09T00:05:09.391Z,44.77
2023-04-09T00:07:36.497Z,44.95
2023-04-09T00:10:03.510Z,45.04
2023-04-09T00:12:30.483Z,45.15
2023-04-09T00:14:57.557Z,45.03
2023-04-09T00:17:24.377Z,44.56
2023-04-09T00:19:51.283Z,44.21
2023-04-09T00:22:18.004Z,44.48
2023-04-09T00:24:45.523Z,44.77
2023-04-09T00:27:12.145Z,45.01
2023-04-09T00:29:41.027Z,45.52
2023-04-09T00:32:07.939Z,45.85
2023-04-09T00:34:34.865Z,46.22
2023-04-09T00:37:01.597Z,46.39
2023-04-09T00:39:28.663Z,46.55
2023-04-09T00:41:57.427Z,46.68
2023-04-09T00:44:24.827Z,46.81
2023-04-09T00:46:52.357Z,47.02
2023-04-09T00:49:19.337Z,47.07
2023-04-09T00:51:46.144Z,47.19
2023-04-09T00:54:12.842Z,47.00
2023-04-09T00:56:39.920Z,47.05
2023-04-09T00:59:07.260Z,47.03
2023-04-09T01:01:35.521Z,47.01
2023-04-09T01:04:02.811Z,46.90
2023-04-09T01:06:45.126Z,46.85
2023-04-09T01:09:27.961Z,46.86
2023-04-09T01:12:19.311Z,46.92
2023-04-09T01:14:53.474Z,47.03
2023-04-09T01:17:33.372Z,46.87
2023-04-09T01:20:01.753Z,46.74
2023-04-09T01:22:38.579Z,46.87
2023-04-09T01:25:30.025Z,46.91
2023-04-09T01:28:18.025Z,46.95
2023-04-09T01:30:50.775Z,46.90
2023-04-09T01:33:18.689Z,46.70
2023-04-09T01:35:46.931Z,46.57
2023-04-09T01:38:14.011Z,46.55
2023-04-09T01:40:40.835Z,46.50
2023-04-09T01:43:07.989Z,46.21
2023-04-09T01:45:36.073Z,46.00
2023-04-09T01:48:02.711Z,45.87
2023-04-09T01:50:33.163Z,45.72
2023-04-09T01:53:00.816Z,45.52
2023-04-09T01:55:27.621Z,45.61
2023-04-09T01:57:54.214Z,45.32
2023-04-09T02:00:23.817Z,45.28
2023-04-09T02:02:57.253Z,45.16
2023-04-09T02:05:26.383Z,45.23
2023-04-09T02:07:55.216Z,45.36
2023-04-09T02:10:24.119Z,45.26
2023-04-09T02:12:50.952Z,45.36
2023-04-09T02:15:19.979Z,45.37
2023-04-09T02:17:47.699Z,45.40
2023-04-09T02:20:18.316Z,45.16
2023-04-09T02:22:45.581Z,44.96
2023-04-09T02:25:12.802Z,44.58
2023-04-09T02:27:39.562Z,44.49
2023-04-09T02:30:07.376Z,44.54
2023-04-09T02:32:35.940Z,44.14
2023-04-09T02:35:07.098Z,43.69
2023-04-09T02:37:33.920Z,43.19
2023-04-09T02:40:00.796Z,42.69
2023-04-09T02:42:27.559Z,42.51
2023-04-09T02:44:54.566Z,42.68
2023-04-09T02:47:21.849Z,42.75
2023-04-09T02:49:49.291Z,42.64
2023-04-09T02:52:16.249Z,42.76
2023-04-09T02:54:43.044Z,42.85
2023-04-09T02:57:10.673Z,42.63
2023-04-09T02:59:38.354Z,42.28
2023-04-09T03:02:05.044Z,41.96
2023-04-09T03:04:31.910Z,41.84
2023-04-09T03:06:58.961Z,41.19
2023-04-09T03:09:26.143Z,40.62
2023-04-09T03:11:52.941Z,40.19
2023-04-09T03:14:19.563Z,40.12
2023-04-09T03:16:50.132Z,40.36
2023-04-09T03:19:16.689Z,40.73
2023-04-09T03:21:43.503Z,41.05
2023-04-09T03:24:10.264Z,40.97
2023-04-09T03:26:38.180Z,40.88
2023-04-09T03:29:10.139Z,40.85
2023-04-09T03:31:37.656Z,40.67
2023-04-09T03:34:04.722Z,40.39
2023-04-09T03:36:32.335Z,40.42
2023-04-09T03:39:02.076Z,40.80
2023-04-09T03:41:37.039Z,41.44
2023-04-09T03:44:06.341Z,41.31
2023-04-09T03:46:39.153Z,41.15
2023-04-09T03:49:07.012Z,41.35
2023-04-09T03:51:37.421Z,41.33
2023-04-09T03:54:04.073Z,41.38
2023-04-09T03:56:32.194Z,41.62
2023-04-09T03:58:59.155Z,41.97
2023-04-09T04:01:34.222Z,42.09
2023-04-09T04:04:01.254Z,41.84
2023-04-09T04:06:35.169Z,41.18
2023-04-09T04:09:21.069Z,40.80
2023-04-09T04:11:55.644Z,40.85
2023-04-09T04:14:24.291Z,40.85
2023-04-09T04:16:55.680Z,40.82
2023-04-09T04:19:25.490Z,40.63
2023-04-09T04:21:52.137Z,40.46
2023-04-09T04:24:21.452Z,40.71
2023-04-09T04:26:50.762Z,40.91
2023-04-09T04:29:18.840Z,41.10
2023-04-09T04:31:59.979Z,41.26
2023-04-09T04:34:31.232Z,41.24
2023-04-09T04:37:02.270Z,41.19
2023-04-09T04:39:37.538Z,40.85
2023-04-09T04:42:09.297Z,40.77
2023-04-09T04:44:36.247Z,40.44
2023-04-09T04:47:13.440Z,40.37
2023-04-09T04:49:41.662Z,40.57
2023-04-09T04:52:11.333Z,40.39
2023-04-09T04:54:39.875Z,39.85
2023-04-09T04:57:07.050Z,39.36
2023-04-09T04:59:42.680Z,39.17
2023-04-09T05:02:11.274Z,39.41
2023-04-09T05:04:46.620Z,39.19
2023-04-09T05:07:17.259Z,38.79
2023-04-09T05:09:50.606Z,38.21
2023-04-09T05:12:17.545Z,38.07
2023-04-09T05:14:48.921Z,38.04
2023-04-09T05:17:16.022Z,37.94
2023-04-09T05:19:44.151Z,37.97
2023-04-09T05:22:11.267Z,37.81
2023-04-09T05:24:43.728Z,37.76
2023-04-09T05:27:10.628Z,37.46
2023-04-09T05:29:37.283Z,37.39
2023-04-09T05:32:08.862Z,37.73
2023-04-09T05:34:38.518Z,37.54
2023-04-09T05:37:05.618Z,36.77
2023-04-09T05:39:33.581Z,36.01
2023-04-09T05:42:01.826Z,35.32
2023-04-09T05:44:38.895Z,34.35
2023-04-09T05:48:47.033Z,34.58
2023-04-09T05:51:15.974Z,31.94
2023-04-09T05:53:44.835Z,31.06
2023-04-09T05:56:15.671Z,30.30
2023-04-09T05:58:51.602Z,29.81
2023-04-09T06:01:20.144Z,29.61
2023-04-09T06:03:48.596Z,29.63
2023-04-09T06:06:16.950Z,29.82
2023-04-09T06:08:48.660Z,30.11
2023-04-09T06:11:16.794Z,30.53
2023-04-09T06:13:45.954Z,31.00
2023-04-09T06:16:14.582Z,31.57
2023-04-09T06:18:43.176Z,31.88
2023-04-09T06:21:13.559Z,32.45
2023-04-09T06:23:45.854Z,33.03
2023-04-09T06:26:14.358Z,33.34
2023-04-09T06:28:43.325Z,33.74
2023-04-09T06:31:11.508Z,34.11
2023-04-09T06:33:40.104Z,34.46
2023-04-09T06:36:08.616Z,35.03
2023-04-09T06:38:37.505Z,35.53
2023-04-09T06:41:08.564Z,35.78
2023-04-09T06:43:38.801Z,36.06
2023-04-09T06:46:06.987Z,36.24
2023-04-09T06:48:36.123Z,36.49
2023-04-09T06:51:04.662Z,36.79
2023-04-09T06:53:33.424Z,36.65
2023-04-09T06:56:03.636Z,36.86
2023-04-09T06:58:31.737Z,36.91
2023-04-09T07:01:01.136Z,37.02
2023-04-09T07:03:30.784Z,36.84
2023-04-09T07:05:59.062Z,36.60
2023-04-09T07:08:28.651Z,36.50
2023-04-09T07:10:59.463Z,36.45
2023-04-09T07:15:57.616Z,36.37
2023-04-09T07:18:31.684Z,36.26
2023-04-09T07:21:01.055Z,35.47
2023-04-09T07:23:29.797Z,35.29
2023-04-09T07:25:57.882Z,35.01
2023-04-09T07:28:27.157Z,34.67
2023-04-09T07:30:55.401Z,33.87
2023-04-09T07:33:43.304Z,32.55
2023-04-09T07:36:12.497Z,32.20
2023-04-09T07:38:41.652Z,31.78
2023-04-09T07:41:12.843Z,31.42
2023-04-09T07:43:41.667Z,30.47
2023-04-09T07:46:09.652Z,30.76
2023-04-09T07:48:38.331Z,30.31
2023-04-09T07:51:06.859Z,29.52
2023-04-09T07:53:37.678Z,30.34
2023-04-09T07:56:06.841Z,31.04
2023-04-09T07:58:35.394Z,31.01
2023-04-09T08:01:06.242Z,31.82
2023-04-09T08:03:36.864Z,32.60
2023-04-09T08:06:05.711Z,31.97
2023-04-09T08:08:35.481Z,31.75
2023-04-09T08:11:04.144Z,31.85
2023-04-09T08:13:32.696Z,32.00
2023-04-09T08:16:02.356Z,32.29
2023-04-09T08:18:30.646Z,32.49
2023-04-09T08:20:58.799Z,31.82
2023-04-09T08:23:28.269Z,32.30
2023-04-09T08:25:56.335Z,31.97
2023-04-09T08:28:24.584Z,31.99
2023-04-09T08:30:53.773Z,32.15
2023-04-09T08:33:22.695Z,31.66
2023-04-09T08:35:50.844Z,31.09
2023-04-09T08:38:20.627Z,30.84
2023-04-09T08:40:48.889Z,30.99
2023-04-09T08:43:17.556Z,31.14
2023-04-09T08:45:46.873Z,30.49
2023-04-09T08:48:15.498Z,30.38
2023-04-09T08:50:46.440Z,30.30
2023-04-09T08:53:14.554Z,29.59
2023-04-09T08:55:45.579Z,29.80
2023-04-09T08:58:14.042Z,29.95
2023-04-09T09:00:42.872Z,29.35
2023-04-09T09:03:13.398Z,29.32
2023-04-09T09:05:43.360Z,29.70
2023-04-09T09:08:24.195Z,29.54
2023-04-09T09:10:52.599Z,30.56
2023-04-09T09:13:25.960Z,30.51
2023-04-09T09:15:56.464Z,30.49
2023-04-09T09:18:38.618Z,30.19
2023-04-09T09:21:13.627Z,30.29
2023-04-09T09:23:42.792Z,29.98
2023-04-09T09:26:18.532Z,29.72
2023-04-09T09:28:47.184Z,29.95
2023-04-09T09:31:16.510Z,29.60
2023-04-09T09:33:47.366Z,29.71
2023-04-09T09:36:16.654Z,30.46
2023-04-09T09:38:57.894Z,30.06
2023-04-09T09:41:29.718Z,29.90
2023-04-09T09:43:59.169Z,30.11
2023-04-09T09:46:27.689Z,29.88
2023-04-09T09:48:56.504Z,30.04
2023-04-09T09:51:27.353Z,28.74
2023-04-09T09:53:57.265Z,28.91
2023-04-09T09:56:33.250Z,29.37
2023-04-09T09:59:21.344Z,29.65
2023-04-09T10:01:52.460Z,29.27
2023-04-09T10:04:20.730Z,29.63
2023-04-09T10:06:49.254Z,28.84
2023-04-09T10:09:19.060Z,29.37
2023-04-09T10:11:48.830Z,29.16
2023-04-09T10:14:18.208Z,28.50
2023-04-09T10:16:46.676Z,28.63
2023-04-09T10:19:15.758Z,28.64
2023-04-09T10:22:04.465Z,29.72
2023-04-09T10:24:34.002Z,29.79
2023-04-09T10:27:16.974Z,29.25
2023-04-09T10:29:47.730Z,29.78
2023-04-09T10:32:28.518Z,29.99
2023-04-09T10:35:17.821Z,29.46
2023-04-09T10:37:48.459Z,29.49
2023-04-09T10:40:22.701Z,29.64
2023-04-09T10:42:50.823Z,29.73
2023-04-09T10:45:23.209Z,29.45
2023-04-09T10:47:54.590Z,30.47
2023-04-09T10:50:31.430Z,29.89
2023-04-09T10:53:04.885Z,29.75
2023-04-09T10:55:41.947Z,29.58
2023-04-09T10:58:13.226Z,29.17
2023-04-09T11:00:49.053Z,29.78
2023-04-09T11:03:20.881Z,30.15
2023-04-09T11:06:10.268Z,30.19
2023-04-09T11:08:41.842Z,29.45
2023-04-09T11:11:17.250Z,30.45
2023-04-09T11:13:45.706Z,29.11
2023-04-09T11:16:22.910Z,29.38
2023-04-09T11:19:02.241Z,29.05
2023-04-09T11:21:48.720Z,28.61
2023-04-09T11:24:19.030Z,29.25
2023-04-09T11:26:51.882Z,28.99
2023-04-09T11:29:36.880Z,28.41
2023-04-09T11:32:05.552Z,28.88
2023-04-09T11:34:53.406Z,28.23
2023-04-09T11:37:28.934Z,27.62
2023-04-09T11:39:58.465Z,27.97
2023-04-09T11:42:31.790Z,28.14
2023-04-09T11:45:07.242Z,27.85
2023-04-09T11:47:51.346Z,27.92
2023-04-09T11:50:23.441Z,28.12
2023-04-09T11:52:51.438Z,28.39
2023-04-09T11:55:31.134Z,27.97
2023-04-09T11:58:11.934Z,27.94
2023-04-09T12:00:43.948Z,28.51
2023-04-09T12:03:12.589Z,28.94
2023-04-09T12:05:50.893Z,29.59
2023-04-09T12:08:25.137Z,29.33
2023-04-09T12:11:08.750Z,29.65
2023-04-09T12:13:44.680Z,28.66
2023-04-09T12:16:13.317Z,29.39
2023-04-09T12:19:11.494Z,30.05
2023-04-09T12:21:50.428Z,29.54
2023-04-09T12:24:19.998Z,29.57
2023-04-09T12:26:53.899Z,29.56
2023-04-09T12:29:22.230Z,29.03
2023-04-09T12:31:51.147Z,28.80
2023-04-09T12:34:27.344Z,27.63
2023-04-09T12:36:56.110Z,27.70
2023-04-09T12:39:24.136Z,27.89
2023-04-09T12:41:55.869Z,27.71
2023-04-09T12:44:24.016Z,27.77
2023-04-09T12:46:55.439Z,27.70
2023-04-09T12:49:28.080Z,27.84
2023-04-09T12:51:57.766Z,27.13
2023-04-09T12:54:26.432Z,26.99
2023-04-09T12:56:54.942Z,27.15
2023-04-09T12:59:23.420Z,27.43
2023-04-09T13:01:55.819Z,27.25
2023-04-09T13:04:26.594Z,27.36
2023-04-09T13:06:59.107Z,28.02
2023-04-09T13:09:27.865Z,28.21
2023-04-09T13:12:12.950Z,28.00
2023-04-09T13:14:43.770Z,28.57
2023-04-09T13:17:13.283Z,29.08
2023-04-09T13:19:43.136Z,29.30
2023-04-09T13:22:12.610Z,29.49
2023-04-09T13:24:43.378Z,29.77
2023-04-09T13:27:13.309Z,30.03
2023-04-09T13:29:45.727Z,30.24
2023-04-09T13:32:14.486Z,30.31
2023-04-09T13:34:51.511Z,30.48
2023-04-09T13:37:20.451Z,30.45
2023-04-09T13:39:50.613Z,30.12
2023-04-09T13:42:19.277Z,30.56
2023-04-09T13:44:47.517Z,30.78
2023-04-09T13:47:16.895Z,30.64
2023-04-09T13:49:45.200Z,30.66
2023-04-09T13:52:13.313Z,31.28
2023-04-09T13:54:41.992Z,33.75
2023-04-09T13:57:10.755Z,34.47
2023-04-09T13:59:38.869Z,35.00
2023-04-09T14:02:09.405Z,35.24
2023-04-09T14:04:38.925Z,35.53
2023-04-09T14:07:08.568Z,35.95
2023-04-09T14:09:39.965Z,36.35
2023-04-09T14:12:08.028Z,36.95
2023-04-09T14:14:38.116Z,37.51
2023-04-09T14:17:07.741Z,38.03
2023-04-09T14:19:36.662Z,38.52
2023-04-09T14:22:15.885Z,38.99
2023-04-09T14:24:43.945Z,39.56
2023-04-09T14:27:12.374Z,40.01
2023-04-09T14:29:46.580Z,41.23
2023-04-09T14:32:23.140Z,42.61
2023-04-09T14:35:09.731Z,43.54
2023-04-09T14:37:42.481Z,44.40
2023-04-09T14:40:13.990Z,44.87
2023-04-09T14:42:45.620Z,45.07
2023-04-09T14:45:24.960Z,45.49
2023-04-09T14:47:55.015Z,45.82
2023-04-09T14:50:26.512Z,45.82
2023-04-09T14:52:56.862Z,46.27
2023-04-09T14:55:44.754Z,46.76
2023-04-09T14:58:19.980Z,46.87
2023-04-09T15:00:59.067Z,47.08
2023-04-09T15:03:31.124Z,46.98
2023-04-09T15:06:12.684Z,46.89
2023-04-09T15:08:41.126Z,46.94
2023-04-09T15:11:23.178Z,46.96
2023-04-09T15:13:57.965Z,46.92
2023-04-09T15:16:28.479Z,46.86
2023-04-09T15:19:05.115Z,46.75
2023-04-09T15:21:38.907Z,46.75
2023-04-09T15:24:07.140Z,46.50
2023-04-09T15:26:39.224Z,46.42
2023-04-09T15:29:22.375Z,45.99
2023-04-09T15:31:56.323Z,45.79
2023-04-09T15:34:32.752Z,45.46
2023-04-09T15:37:03.549Z,44.88
2023-04-09T15:39:32.698Z,44.96
2023-04-09T15:42:02.392Z,45.17
2023-04-09T15:44:32.122Z,45.06
2023-04-09T15:47:12.446Z,45.13
2023-04-09T15:49:43.133Z,45.12
2023-04-09T15:52:16.049Z,45.09
2023-04-09T15:54:46.997Z,45.08
2023-04-09T15:57:22.209Z,45.02
2023-04-09T15:59:50.261Z,44.84
2023-04-09T16:02:25.961Z,44.71
2023-04-09T16:04:56.543Z,44.90
2023-04-09T16:07:25.706Z,44.91
2023-04-09T16:09:54.647Z,45.04
2023-04-09T16:12:26.050Z,45.01
2023-04-09T16:15:07.616Z,44.98
2023-04-09T16:17:40.766Z,45.15
2023-04-09T16:20:11.726Z,45.20
2023-04-09T16:22:45.364Z,45.20
2023-04-09T16:25:14.515Z,45.04
2023-04-09T16:27:49.188Z,45.17
2023-04-09T16:30:23.773Z,45.22
2023-04-09T16:32:56.883Z,45.26
2023-04-09T16:35:27.391Z,45.32
2023-04-09T16:38:09.671Z,45.28
2023-04-09T16:40:46.532Z,45.46
2023-04-09T16:43:19.476Z,45.37
2023-04-09T16:45:50.053Z,45.23
2023-04-09T16:48:37.270Z,45.02
2023-04-09T16:51:12.987Z,44.83
2023-04-09T16:53:45.856Z,44.64
2023-04-09T16:56:18.970Z,44.45
2023-04-09T16:58:47.367Z,44.62
2023-04-09T17:01:22.935Z,44.68
2023-04-09T17:03:55.097Z,44.82
2023-04-09T17:06:24.030Z,44.87
2023-04-09T17:08:53.757Z,44.79
2023-04-09T17:11:24.178Z,45.00
2023-04-09T17:13:55.905Z,45.05
2023-04-09T17:16:24.904Z,45.18
2023-04-09T17:18:53.469Z,45.19
2023-04-09T17:21:27.479Z,45.25
2023-04-09T17:23:57.340Z,45.25
2023-04-09T17:26:25.513Z,45.23
2023-04-09T17:29:00.349Z,44.99
2023-04-09T17:31:29.064Z,44.83
2023-04-09T17:34:17.181Z,44.80
2023-04-09T17:37:00.981Z,44.77
2023-04-09T17:39:29.853Z,45.04
2023-04-09T17:41:58.483Z,45.14
2023-04-09T17:44:28.690Z,45.41
2023-04-09T17:47:05.263Z,45.51
2023-04-09T17:49:34.441Z,45.54
2023-04-09T17:52:06.298Z,45.75
2023-04-09T17:54:35.010Z,45.76
2023-04-09T17:57:07.384Z,45.76
2023-04-09T17:59:42.467Z,45.68
2023-04-09T18:02:16.578Z,45.58
2023-04-09T18:07:03.881Z,48.36
2023-04-09T18:09:38.649Z,46.07
2023-04-09T18:12:06.218Z,46.05
2023-04-09T18:14:47.847Z,46.07
2023-04-09T18:17:16.465Z,45.91
2023-04-09T18:19:43.386Z,45.83
2023-04-09T18:22:14.285Z,45.89
2023-04-09T18:24:41.520Z,45.67
2023-04-09T18:27:08.489Z,45.64
2023-04-09T18:29:40.942Z,45.71
2023-04-09T18:32:08.601Z,45.66
2023-04-09T18:34:37.600Z,45.77
2023-04-09T18:37:04.392Z,45.69
2023-04-09T18:40:05.414Z,45.66
2023-04-09T18:42:33.188Z,45.54
2023-04-09T18:45:00.231Z,45.63
2023-04-09T18:47:29.594Z,45.77
2023-04-09T18:49:57.378Z,45.84
2023-04-09T18:52:27.009Z,46.16
2023-04-09T18:55:11.203Z,46.41
2023-04-09T18:57:38.423Z,46.62
2023-04-09T19:00:06.595Z,46.86
2023-04-09T19:02:34.005Z,46.84
2023-04-09T19:05:02.719Z,46.88
2023-04-09T19:07:31.509Z,46.86
2023-04-09T19:09:58.410Z,46.82
2023-04-09T19:12:28.109Z,46.81
2023-04-09T19:14:56.339Z,46.74
2023-04-09T19:17:23.793Z,46.74
2023-04-09T19:19:52.138Z,46.67
2023-04-09T19:22:19.127Z,46.55
2023-04-09T19:24:46.080Z,46.58
2023-04-09T19:27:13.477Z,46.50
2023-04-09T19:29:40.554Z,46.36
2023-04-09T19:32:12.793Z,46.35
2023-04-09T19:34:41.180Z,46.47
2023-04-09T19:37:07.918Z,46.71
2023-04-09T19:39:35.168Z,46.87
2023-04-09T19:42:02.376Z,46.90
2023-04-09T19:44:31.588Z,46.93
2023-04-09T19:46:58.479Z,46.84
2023-04-09T19:49:27.976Z,46.57
2023-04-09T19:52:00.383Z,46.37
2023-04-09T19:54:30.194Z,46.20
2023-04-09T19:57:09.049Z,46.16
2023-04-09T19:59:39.167Z,46.16
2023-04-09T20:02:08.538Z,46.02
2023-04-09T20:04:35.920Z,45.42
2023-04-09T20:07:03.737Z,45.41
2023-04-09T20:09:41.830Z,45.60
2023-04-09T20:12:10.163Z,45.40
2023-04-09T20:14:40.090Z,45.65
2023-04-09T20:17:10.139Z,45.97
2023-04-09T20:19:39.318Z,46.36
2023-04-09T20:22:06.168Z,46.33
2023-04-09T20:24:34.693Z,46.43
2023-04-09T20:27:01.613Z,46.75
2023-04-09T20:29:29.164Z,46.84
2023-04-09T20:32:02.681Z,47.11
2023-04-09T20:34:30.135Z,47.17
2023-04-09T20:36:57.155Z,47.24
2023-04-09T20:39:26.087Z,47.42
2023-04-09T20:41:53.682Z,47.47
2023-04-09T20:44:20.935Z,47.59
2023-04-09T20:46:47.879Z,47.62
2023-04-09T20:49:15.263Z,47.61
2023-04-09T20:51:45.745Z,47.60
2023-04-09T20:54:12.740Z,47.70
2023-04-09T20:56:39.371Z,47.52
2023-04-09T20:59:06.636Z,47.61
2023-04-09T21:01:34.240Z,47.65
2023-04-09T21:04:01.189Z,47.54
2023-04-09T21:06:30.056Z,47.52
2023-04-09T21:08:58.699Z,47.55
2023-04-09T21:11:26.687Z,47.69
2023-04-09T21:13:55.618Z,47.68
2023-04-09T21:16:25.551Z,47.47
2023-04-09T21:18:52.833Z,47.52
2023-04-09T21:21:30.097Z,47.36
2023-04-09T21:23:57.023Z,47.13
2023-04-09T21:26:24.560Z,47.05
2023-04-09T21:28:56.725Z,47.06
2023-04-09T21:31:23.642Z,47.07
2023-04-09T21:33:50.736Z,46.94
2023-04-09T21:36:19.472Z,47.08
2023-04-09T21:38:46.290Z,47.05
2023-04-09T21:41:13.923Z,47.01
2023-04-09T21:43:41.908Z,47.04
2023-04-09T21:46:08.687Z,47.08
2023-04-09T21:48:35.877Z,47.09
2023-04-09T21:51:03.054Z,47.06
2023-04-09T21:53:35.471Z,47.07
2023-04-09T21:56:04.806Z,46.95
2023-04-09T21:58:31.980Z,46.89
2023-04-09T22:00:58.863Z,46.80
2023-04-09T22:03:27.011Z,46.62
2023-04-09T22:05:54.243Z,46.30
2023-04-09T22:08:21.090Z,45.98
2023-04-09T22:10:47.781Z,45.95
2023-04-09T22:13:21.540Z,45.99
2023-04-09T22:15:48.534Z,46.19
2023-04-09T22:18:15.752Z,46.25
2023-04-09T22:20:45.659Z,46.21
2023-04-09T22:23:13.008Z,46.24
2023-04-09T22:25:40.054Z,46.35
2023-04-09T22:28:10.286Z,46.26
2023-04-09T22:30:40.423Z,46.26
2023-04-09T22:33:08.249Z,46.11
2023-04-09T22:35:35.782Z,46.11
2023-04-09T22:38:03.499Z,46.15
2023-04-09T22:40:30.279Z,45.97
2023-04-09T22:42:57.318Z,45.90
2023-04-09T22:45:27.301Z,45.81
2023-04-09T22:47:55.165Z,45.79
2023-04-09T22:50:22.044Z,45.67
2023-04-09T22:52:51.004Z,45.54
2023-04-09T22:55:17.735Z,45.60
2023-04-09T22:57:46.127Z,45.48
2023-04-09T23:00:13.854Z,45.49
2023-04-09T23:02:41.292Z,45.68
2023-04-09T23:05:09.183Z,45.84
2023-04-09T23:07:36.271Z,46.05
2023-04-09T23:10:03.112Z,46.31
2023-04-09T23:12:32.772Z,46.54
2023-04-09T23:14:59.582Z,46.59
2023-04-09T23:17:27.124Z,46.59
2023-04-09T23:19:53.735Z,46.68
2023-04-09T23:22:20.710Z,46.73
2023-04-09T23:24:47.421Z,46.68
2023-04-09T23:27:14.112Z,46.51
2023-04-09T23:29:40.827Z,46.48
2023-04-09T23:32:07.481Z,46.63
2023-04-09T23:34:34.216Z,46.88
2023-04-09T23:37:00.990Z,46.95
2023-04-09T23:39:27.699Z,47.09
2023-04-09T23:41:55.318Z,47.19
2023-04-09T23:44:27.586Z,47.49
2023-04-09T23:46:54.512Z,47.66
2023-04-09T23:49:21.287Z,47.88
2023-04-09T23:51:50.834Z,47.88
2023-04-09T23:54:17.971Z,47.96
2023-04-09T23:56:46.202Z,48.08
2023-04-09T23:59:13.303Z,48.12
